Time;durP1;ratioP1;P1;durP2;ratioP2;P2;SDS_P1;SDS_P2;PMS_P1;PMS_P2;Temp;Humidity;BMP_temperature;BMP_pressure;BME280_temperature;BME280_humidity;BME280_pressure;Samples;Min_cycle;Max_cycle;Signal;HPM_P1;HPM_P2
2021/05/28 00:01:47;;;;;;;6.07;3.00;;;;;;;;;;5041870;28;20077;-78
2021/05/28 00:04:15;;;;;;;5.05;2.88;;;;;;;;;;5033202;28;20088;-78
2021/05/28 00:06:42;;;;;;;7.75;3.33;;;;;;;;;;5018709;28;20160;-78
2021/05/28 00:09:09;;;;;;;10.38;3.80;;;;;;;;;;5050567;28;20083;-78
2021/05/28 00:11:36;;;;;;;5.93;3.60;;;;;;;;;;5033773;28;20080;-78
2021/05/28 00:14:04;;;;;;;8.65;3.38;;;;;;;;;;5071752;28;20048;-78
2021/05/28 00:16:31;;;;;;;6.32;3.20;;;;;;;;;;5032225;28;20136;-78
2021/05/28 00:18:58;;;;;;;9.90;3.50;;;;;;;;;;5032762;28;20120;-78
2021/05/28 00:21:25;;;;;;;8.05;2.83;;;;;;;;;;5031143;28;20132;-79
2021/05/28 00:23:53;;;;;;;13.32;4.40;;;;;;;;;;5047331;28;20075;-78
2021/05/28 00:26:20;;;;;;;8.05;2.92;;;;;;;;;;5050326;28;20080;-78
2021/05/28 00:28:49;;;;;;;6.00;2.20;;;;;;;;;;5033968;28;20100;-78
2021/05/28 00:31:18;;;;;;;8.90;2.65;;;;;;;;;;5047635;28;20052;-78
2021/05/28 00:33:46;;;;;;;8.20;2.90;;;;;;;;;;5018542;28;20490;-78
2021/05/28 00:36:14;;;;;;;12.70;3.60;;;;;;;;;;5043196;28;20785;-78
2021/05/28 00:38:41;;;;;;;10.48;2.60;;;;;;;;;;5033165;28;20072;-79
2021/05/28 00:41:08;;;;;;;9.32;2.55;;;;;;;;;;5031097;28;20638;-78
2021/05/28 00:43:35;;;;;;;7.80;2.20;;;;;;;;;;5034552;28;20494;-78
2021/05/28 00:46:03;;;;;;;9.90;2.38;;;;;;;;;;5032762;28;20478;-79
2021/05/28 00:48:31;;;;;;;11.82;2.38;;;;;;;;;;5051379;28;20129;-80
2021/05/28 00:50:58;;;;;;;8.40;2.03;;;;;;;;;;5050605;28;20136;-79
2021/05/28 00:53:27;;;;;;;5.60;1.83;;;;;;;;;;5033333;28;20152;-79
2021/05/28 00:55:55;;;;;;;5.85;2.08;;;;;;;;;;5033362;28;20079;-79
2021/05/28 00:58:24;;;;;;;7.75;1.80;;;;;;;;;;5032880;28;20135;-78
2021/05/28 01:00:52;;;;;;;7.03;2.15;;;;;;;;;;5031107;28;20178;-79
2021/05/28 01:03:19;;;;;;;3.35;2.00;;;;;;;;;;5014106;28;20087;-78
2021/05/28 01:05:47;;;;;;;8.63;2.72;;;;;;;;;;5050854;28;20059;-78
2021/05/28 01:08:14;;;;;;;5.43;2.60;;;;;;;;;;5022121;28;20410;-80
2021/05/28 01:10:41;;;;;;;10.60;2.90;;;;;;;;;;5015615;28;20084;-79
2021/05/28 01:13:10;;;;;;;7.65;2.67;;;;;;;;;;5036088;28;20129;-79
2021/05/28 01:15:37;;;;;;;9.18;2.92;;;;;;;;;;5031668;28;20095;-78
2021/05/28 01:18:04;;;;;;;7.70;3.15;;;;;;;;;;5048037;28;20136;-78
2021/05/28 01:20:38;;;;;;;6.85;3.08;;;;;;;;;;5033378;28;20107;-78
2021/05/28 01:23:05;;;;;;;8.68;3.03;;;;;;;;;;5050212;28;20053;-79
2021/05/28 01:25:34;;;;;;;7.68;3.45;;;;;;;;;;5032102;28;20134;-79
2021/05/28 01:28:04;;;;;;;9.27;3.10;;;;;;;;;;5022816;28;20650;-79
2021/05/28 01:30:31;;;;;;;8.30;3.47;;;;;;;;;;5045338;28;20127;-79
2021/05/28 01:32:58;;;;;;;8.98;3.05;;;;;;;;;;5030655;28;20861;-78
2021/05/28 01:35:26;;;;;;;11.07;5.13;;;;;;;;;;5025204;28;20072;-78
2021/05/28 01:37:53;;;;;;;8.95;3.47;;;;;;;;;;5018200;28;20037;-78
2021/05/28 01:40:21;;;;;;;7.57;3.15;;;;;;;;;;5026920;28;20073;-79
2021/05/28 01:42:49;;;;;;;6.75;3.15;;;;;;;;;;5012348;28;20529;-78
2021/05/28 01:45:17;;;;;;;7.38;3.50;;;;;;;;;;5035272;28;20127;-79
2021/05/28 01:47:49;;;;;;;12.43;5.90;;;;;;;;;;5016494;28;20136;-78
2021/05/28 01:50:16;;;;;;;10.55;3.67;;;;;;;;;;5028185;28;20050;-78
2021/05/28 01:52:44;;;;;;;10.32;3.80;;;;;;;;;;5043355;28;20088;-78
2021/05/28 01:55:13;;;;;;;13.27;4.50;;;;;;;;;;5031417;28;20723;-78
2021/05/28 01:57:40;;;;;;;9.50;4.10;;;;;;;;;;5031885;28;20069;-79
2021/05/28 02:00:17;;;;;;;7.45;3.20;;;;;;;;;;5031858;28;20148;-78
2021/05/28 02:02:44;;;;;;;9.43;4.13;;;;;;;;;;5012242;28;20096;-78
2021/05/28 02:05:11;;;;;;;9.70;4.35;;;;;;;;;;5017634;28;20130;-78
2021/05/28 02:07:39;;;;;;;11.35;4.93;;;;;;;;;;5049026;28;20060;-78
2021/05/28 02:10:07;;;;;;;14.43;4.93;;;;;;;;;;5027308;28;20052;-78
2021/05/28 02:12:34;;;;;;;10.32;5.13;;;;;;;;;;5028737;28;20132;-78
2021/05/28 02:15:04;;;;;;;12.68;5.30;;;;;;;;;;5021585;28;20052;-78
2021/05/28 02:17:31;;;;;;;13.07;5.07;;;;;;;;;;5028798;28;20149;-77
2021/05/28 02:19:59;;;;;;;11.88;5.25;;;;;;;;;;5030194;28;20144;-78
2021/05/28 02:22:26;;;;;;;9.95;4.65;;;;;;;;;;5048742;28;20138;-78
2021/05/28 02:24:53;;;;;;;14.13;5.47;;;;;;;;;;5023822;28;20060;-78
2021/05/28 02:27:21;;;;;;;10.23;5.60;;;;;;;;;;5031159;28;20773;-78
2021/05/28 02:29:51;;;;;;;14.43;5.28;;;;;;;;;;5048163;28;20049;-77
2021/05/28 02:32:19;;;;;;;14.70;6.50;;;;;;;;;;5015689;28;20438;-77
2021/05/28 02:34:46;;;;;;;13.80;5.72;;;;;;;;;;5041596;28;20731;-77
2021/05/28 02:37:13;;;;;;;12.45;5.28;;;;;;;;;;5029845;28;20045;-77
2021/05/28 02:39:40;;;;;;;14.50;5.90;;;;;;;;;;5047828;28;20107;-77
2021/05/28 02:42:08;;;;;;;12.52;6.00;;;;;;;;;;5026777;28;20126;-78
2021/05/28 02:44:35;;;;;;;18.20;6.10;;;;;;;;;;5046807;28;20052;-78
2021/05/28 02:47:02;;;;;;;13.82;5.65;;;;;;;;;;5032422;28;20438;-78
2021/05/28 02:49:29;;;;;;;14.13;5.78;;;;;;;;;;5045855;28;20717;-77
2021/05/28 02:51:56;;;;;;;12.52;6.30;;;;;;;;;;5035541;28;20738;-77
2021/05/28 02:54:25;;;;;;;11.93;6.35;;;;;;;;;;5026605;28;20045;-78
2021/05/28 02:56:52;;;;;;;17.60;5.80;;;;;;;;;;5052243;28;20084;-78
2021/05/28 02:59:19;;;;;;;15.52;6.03;;;;;;;;;;5019086;28;20091;-77
2021/05/28 03:01:47;;;;;;;15.50;6.45;;;;;;;;;;5051274;28;20080;-77
2021/05/28 03:04:14;;;;;;;14.25;5.88;;;;;;;;;;5033766;28;20080;-78
2021/05/28 03:06:44;;;;;;;10.65;5.72;;;;;;;;;;5036852;28;20052;-77
2021/05/28 03:09:11;;;;;;;14.48;5.55;;;;;;;;;;5035387;28;20060;-78
2021/05/28 03:11:39;;;;;;;17.15;6.57;;;;;;;;;;5051530;28;20133;-77
2021/05/28 03:14:06;;;;;;;13.27;6.95;;;;;;;;;;5045208;28;20041;-77
2021/05/28 03:16:33;;;;;;;17.70;7.47;;;;;;;;;;5024614;28;20051;-77
2021/05/28 03:19:03;;;;;;;13.48;6.78;;;;;;;;;;5016695;28;20084;-78
2021/05/28 03:24:01;;;;;;;13.35;6.70;;;;;;;;;;5041677;28;20132;-79
2021/05/28 03:26:29;;;;;;;14.70;7.03;;;;;;;;;;5014020;28;20045;-78
2021/05/28 03:28:57;;;;;;;16.80;7.53;;;;;;;;;;5031945;28;20069;-79
2021/05/28 03:31:27;;;;;;;13.45;8.02;;;;;;;;;;5013345;28;20582;-78
2021/05/28 03:33:54;;;;;;;14.02;7.45;;;;;;;;;;5032999;28;20776;-79
2021/05/28 03:36:21;;;;;;;19.75;7.90;;;;;;;;;;5032793;28;20072;-78
2021/05/28 03:38:49;;;;;;;15.52;7.68;;;;;;;;;;5033511;28;20545;-78
2021/05/28 03:41:17;;;;;;;15.70;7.03;;;;;;;;;;5032948;28;20610;-78
2021/05/28 03:43:44;;;;;;;18.35;7.75;;;;;;;;;;5046074;28;20144;-79
2021/05/28 03:46:11;;;;;;;12.10;6.70;;;;;;;;;;5050691;28;20091;-79
2021/05/28 03:48:38;;;;;;;13.07;7.20;;;;;;;;;;5050874;28;20107;-79
2021/05/28 03:51:06;;;;;;;16.52;7.60;;;;;;;;;;5051165;28;20073;-78
2021/05/28 03:53:33;;;;;;;22.15;7.70;;;;;;;;;;5049293;28;20127;-78
2021/05/28 03:56:00;;;;;;;14.30;7.28;;;;;;;;;;5050498;28;20084;-78
2021/05/28 03:58:27;;;;;;;16.30;7.65;;;;;;;;;;5032919;28;20053;-78
2021/05/28 04:00:55;;;;;;;13.63;7.63;;;;;;;;;;5016231;28;20169;-78
2021/05/28 04:03:22;;;;;;;17.17;7.60;;;;;;;;;;5023428;28;20091;-78
2021/05/28 04:05:49;;;;;;;13.38;7.13;;;;;;;;;;5031999;28;20085;-79
2021/05/28 04:08:16;;;;;;;14.43;6.55;;;;;;;;;;5049792;28;20053;-78
2021/05/28 04:10:43;;;;;;;14.23;6.75;;;;;;;;;;5032304;28;20128;-78
2021/05/28 04:13:10;;;;;;;12.95;6.25;;;;;;;;;;5028431;28;20073;-78
2021/05/28 04:15:38;;;;;;;11.10;6.50;;;;;;;;;;5043161;28;20123;-78
2021/05/28 04:18:05;;;;;;;20.63;5.28;;;;;;;;;;5008031;28;1034364;-78
2021/05/28 04:20:35;;;;;;;23.88;6.40;;;;;;;;;;5013924;28;20135;-78
2021/05/28 04:23:02;;;;;;;13.90;5.80;;;;;;;;;;5032507;28;20152;-78
2021/05/28 04:25:30;;;;;;;14.13;6.15;;;;;;;;;;5033181;28;20143;-78
2021/05/28 04:27:57;;;;;;;9.65;5.00;;;;;;;;;;5038531;28;20093;-78
2021/05/28 04:30:24;;;;;;;13.32;5.25;;;;;;;;;;5026012;28;20480;-78
2021/05/28 04:32:52;;;;;;;16.83;5.38;;;;;;;;;;5026051;28;20076;-80
2021/05/28 04:35:19;;;;;;;13.98;5.63;;;;;;;;;;5026271;28;20116;-79
2021/05/28 04:37:47;;;;;;;12.05;5.07;;;;;;;;;;5050852;28;20498;-80
2021/05/28 04:40:14;;;;;;;11.95;5.05;;;;;;;;;;5050851;28;20984;-79
2021/05/28 04:42:42;;;;;;;12.40;6.75;;;;;;;;;;5033189;28;20084;-79
2021/05/28 04:45:09;;;;;;;12.00;5.65;;;;;;;;;;5033413;28;20136;-79
2021/05/28 04:47:36;;;;;;;16.40;6.55;;;;;;;;;;5032322;28;20128;-83
2021/05/28 04:50:04;;;;;;;12.88;5.35;;;;;;;;;;5031251;28;20209;-84
2021/05/28 04:52:32;;;;;;;11.32;5.32;;;;;;;;;;5035920;28;20138;-83
2021/05/28 04:54:59;;;;;;;7.97;4.68;;;;;;;;;;5032881;28;20088;-84
2021/05/28 04:57:32;;;;;;;13.77;4.88;;;;;;;;;;5033524;28;20088;-83
2021/05/28 05:00:01;;;;;;;11.27;7.47;;;;;;;;;;5050761;28;20109;-85
2021/05/28 05:02:32;;;;;;;9.57;4.80;;;;;;;;;;5012982;28;20084;-87
2021/05/28 05:05:00;;;;;;;9.32;4.32;;;;;;;;;;5013217;28;20096;-82
2021/05/28 05:07:32;;;;;;;9.13;4.15;;;;;;;;;;5013896;28;20564;-88
2021/05/28 05:09:59;;;;;;;10.88;4.55;;;;;;;;;;5013796;28;20156;-82
2021/05/28 05:12:26;;;;;;;8.40;4.03;;;;;;;;;;5049164;28;20091;-82
2021/05/28 05:14:59;;;;;;;8.02;3.90;;;;;;;;;;5033283;28;20075;-83
2021/05/28 05:17:26;;;;;;;8.73;4.32;;;;;;;;;;5050239;28;20083;-83
2021/05/28 05:19:53;;;;;;;8.55;3.70;;;;;;;;;;5032327;28;20079;-82
2021/05/28 05:22:21;;;;;;;8.30;3.90;;;;;;;;;;5032223;28;20442;-84
2021/05/28 05:24:49;;;;;;;9.75;3.63;;;;;;;;;;5032878;28;20076;-81
2021/05/28 05:27:19;;;;;;;7.43;3.90;;;;;;;;;;5032969;28;20057;-81
2021/05/28 05:29:46;;;;;;;11.98;3.80;;;;;;;;;;5032549;28;20076;-81
2021/05/28 05:32:14;;;;;;;7.38;3.42;;;;;;;;;;5049670;28;20127;-80
2021/05/28 05:34:45;;;;;;;9.15;3.95;;;;;;;;;;5048488;28;20123;-85
2021/05/28 05:37:13;;;;;;;10.35;3.30;;;;;;;;;;5044443;28;20466;-77
2021/05/28 05:39:40;;;;;;;6.20;3.30;;;;;;;;;;5047174;28;20076;-77
2021/05/28 05:42:08;;;;;;;9.98;3.17;;;;;;;;;;5029300;28;20171;-79
2021/05/28 05:44:35;;;;;;;7.65;3.17;;;;;;;;;;5046330;28;20096;-78
2021/05/28 05:47:03;;;;;;;13.95;3.22;;;;;;;;;;5046617;28;20463;-80
2021/05/28 05:49:31;;;;;;;9.65;3.67;;;;;;;;;;5044541;28;20139;-80
2021/05/28 05:51:58;;;;;;;5.13;2.70;;;;;;;;;;5025493;28;20140;-79
2021/05/28 05:54:26;;;;;;;4.50;2.80;;;;;;;;;;5042667;28;20245;-80
2021/05/28 05:56:54;;;;;;;6.80;3.17;;;;;;;;;;5031598;28;20076;-79
2021/05/28 05:59:21;;;;;;;6.10;3.17;;;;;;;;;;5049686;28;20123;-80
2021/05/28 06:01:48;;;;;;;5.22;2.60;;;;;;;;;;5049577;28;20087;-79
2021/05/28 06:04:16;;;;;;;10.02;3.03;;;;;;;;;;5050381;28;20087;-80
2021/05/28 06:06:44;;;;;;;3.00;2.10;;;;;;;;;;5049226;28;20077;-79
2021/05/28 06:09:12;;;;;;;6.85;2.45;;;;;;;;;;5032194;28;20432;-79
2021/05/28 06:11:39;;;;;;;6.07;2.42;;;;;;;;;;5049676;28;20049;-80
2021/05/28 06:14:09;;;;;;;5.68;3.10;;;;;;;;;;5032847;28;20748;-79
2021/05/28 06:16:37;;;;;;;5.05;2.65;;;;;;;;;;5050520;28;20068;-80
2021/05/28 06:19:05;;;;;;;4.72;2.83;;;;;;;;;;5050103;28;20414;-80
2021/05/28 06:21:33;;;;;;;3.05;2.40;;;;;;;;;;5035136;28;20057;-80
2021/05/28 06:24:02;;;;;;;3.85;2.40;;;;;;;;;;5053400;28;20052;-80
2021/05/28 06:26:33;;;;;;;6.30;2.30;;;;;;;;;;5053935;28;20513;-80
2021/05/28 06:29:02;;;;;;;8.00;2.75;;;;;;;;;;5036182;28;20095;-79
2021/05/28 06:31:35;;;;;;;4.75;2.13;;;;;;;;;;5036233;28;20102;-80
2021/05/28 06:34:02;;;;;;;3.70;2.30;;;;;;;;;;5036479;28;20046;-80
2021/05/28 06:36:30;;;;;;;4.43;2.03;;;;;;;;;;5053876;28;20143;-80
2021/05/28 06:38:57;;;;;;;15.13;2.63;;;;;;;;;;5036151;28;20128;-80
2021/05/28 06:41:24;;;;;;;4.05;2.22;;;;;;;;;;5054494;28;20127;-80
2021/05/28 06:43:52;;;;;;;11.57;2.30;;;;;;;;;;5036195;28;20128;-79
2021/05/28 06:46:19;;;;;;;5.85;2.10;;;;;;;;;;5054052;28;20114;-80
2021/05/28 06:48:46;;;;;;;4.90;2.00;;;;;;;;;;5053727;28;20103;-80
2021/05/28 06:51:15;;;;;;;4.80;1.98;;;;;;;;;;5036009;28;20556;-80
2021/05/28 06:53:42;;;;;;;5.97;1.88;;;;;;;;;;5053241;28;20085;-80
2021/05/28 06:56:09;;;;;;;4.43;1.95;;;;;;;;;;5036079;28;20047;-80
2021/05/28 06:58:36;;;;;;;5.43;1.60;;;;;;;;;;5053835;28;20088;-80
2021/05/28 07:01:04;;;;;;;5.15;2.40;;;;;;;;;;5053699;28;20710;-80
2021/05/28 07:03:31;;;;;;;6.43;2.10;;;;;;;;;;5035826;28;20137;-80
2021/05/28 07:05:58;;;;;;;2.78;2.00;;;;;;;;;;5036531;28;20073;-80
2021/05/28 07:08:25;;;;;;;1.63;1.30;;;;;;;;;;5053150;28;20088;-80
2021/05/28 07:10:52;;;;;;;3.15;1.88;;;;;;;;;;5053690;28;20132;-79
2021/05/28 07:13:20;;;;;;;2.83;1.90;;;;;;;;;;5053757;28;20147;-80
2021/05/28 07:15:47;;;;;;;2.08;1.80;;;;;;;;;;5054228;28;20092;-80
2021/05/28 07:18:14;;;;;;;5.05;2.03;;;;;;;;;;5053621;28;20127;-80
2021/05/28 07:20:41;;;;;;;2.55;1.80;;;;;;;;;;5053354;28;20128;-80
2021/05/28 07:23:08;;;;;;;2.53;2.03;;;;;;;;;;5053600;28;20053;-81
2021/05/28 07:25:36;;;;;;;2.75;1.83;;;;;;;;;;5052758;28;20124;-81
2021/05/28 07:28:03;;;;;;;3.90;1.70;;;;;;;;;;5053362;28;20504;-80
2021/05/28 07:30:30;;;;;;;1.95;1.70;;;;;;;;;;5052854;28;20151;-80
2021/05/28 07:32:57;;;;;;;6.72;1.90;;;;;;;;;;5034290;28;20488;-80
2021/05/28 07:35:24;;;;;;;3.80;1.63;;;;;;;;;;5053077;28;20076;-80
2021/05/28 07:37:51;;;;;;;4.60;1.58;;;;;;;;;;5053578;28;20083;-80
2021/05/28 07:40:21;;;;;;;2.50;1.75;;;;;;;;;;5052220;28;20101;-80
2021/05/28 07:42:48;;;;;;;1.95;1.20;;;;;;;;;;5034847;28;20748;-80
2021/05/28 07:45:16;;;;;;;2.38;1.38;;;;;;;;;;5035063;28;20132;-80
2021/05/28 07:47:43;;;;;;;3.38;1.63;;;;;;;;;;5052865;28;20464;-80
2021/05/28 07:50:12;;;;;;;3.50;1.15;;;;;;;;;;5052964;28;20502;-80
2021/05/28 07:52:42;;;;;;;4.03;1.70;;;;;;;;;;5051809;28;20045;-80
2021/05/28 07:55:11;;;;;;;3.40;1.63;;;;;;;;;;5052336;28;20069;-80
2021/05/28 07:57:40;;;;;;;1.60;1.35;;;;;;;;;;5052256;28;20087;-80
2021/05/28 08:00:09;;;;;;;3.47;1.75;;;;;;;;;;5052883;28;20095;-80
2021/05/28 08:02:38;;;;;;;3.13;1.50;;;;;;;;;;5035315;28;20053;-80
2021/05/28 08:05:05;;;;;;;5.22;1.92;;;;;;;;;;5052490;28;20077;-80
2021/05/28 08:07:33;;;;;;;8.00;1.65;;;;;;;;;;5052763;28;20056;-80
2021/05/28 08:10:00;;;;;;;6.97;2.85;;;;;;;;;;5052410;28;20076;-80
2021/05/28 08:12:27;;;;;;;5.78;2.17;;;;;;;;;;5053169;28;20151;-80
2021/05/28 08:14:55;;;;;;;3.53;1.73;;;;;;;;;;5051692;28;20128;-80
2021/05/28 08:17:22;;;;;;;4.90;1.38;;;;;;;;;;5051875;28;20144;-80
2021/05/28 08:19:49;;;;;;;2.13;1.60;;;;;;;;;;5052145;28;20073;-80
2021/05/28 08:22:16;;;;;;;5.00;1.77;;;;;;;;;;5051938;28;20569;-80
2021/05/28 08:24:43;;;;;;;2.75;1.80;;;;;;;;;;5015085;28;20141;-80
2021/05/28 08:27:18;;;;;;;4.47;2.10;;;;;;;;;;5052240;28;20048;-80
2021/05/28 08:29:45;;;;;;;4.00;2.10;;;;;;;;;;5051627;28;20148;-80
2021/05/28 08:32:12;;;;;;;3.95;2.20;;;;;;;;;;5051851;28;20087;-79
2021/05/28 08:34:39;;;;;;;5.13;2.20;;;;;;;;;;5051866;28;20047;-80
2021/05/28 08:37:09;;;;;;;6.20;2.08;;;;;;;;;;5052157;28;20156;-81
2021/05/28 08:39:37;;;;;;;4.68;1.70;;;;;;;;;;5034918;28;20091;-80
2021/05/28 08:42:06;;;;;;;4.18;2.00;;;;;;;;;;5052241;28;20131;-80
2021/05/28 08:44:33;;;;;;;7.45;1.90;;;;;;;;;;5051127;28;20132;-80
2021/05/28 08:47:03;;;;;;;5.78;1.88;;;;;;;;;;5052103;28;20056;-80
2021/05/28 08:49:31;;;;;;;4.18;2.05;;;;;;;;;;5051847;28;20081;-80
2021/05/28 08:52:00;;;;;;;6.03;1.95;;;;;;;;;;5050519;28;20103;-80
2021/05/28 08:54:31;;;;;;;3.10;1.85;;;;;;;;;;5052059;28;20542;-81
2021/05/28 08:56:58;;;;;;;3.00;2.00;;;;;;;;;;5051525;28;20787;-80
2021/05/28 08:59:26;;;;;;;1.77;1.63;;;;;;;;;;5035006;28;20041;-80
2021/05/28 09:01:53;;;;;;;7.18;2.05;;;;;;;;;;5051744;28;20080;-81
2021/05/28 09:04:21;;;;;;;7.03;2.50;;;;;;;;;;5051632;28;20076;-81
2021/05/28 09:06:49;;;;;;;2.50;2.17;;;;;;;;;;5051700;28;20143;-80
2021/05/28 09:09:23;;;;;;;12.23;2.33;;;;;;;;;;5051585;28;20489;-81
2021/05/28 09:11:54;;;;;;;5.60;2.30;;;;;;;;;;5051866;28;20465;-81
2021/05/28 09:14:32;;;;;;;13.35;2.45;;;;;;;;;;5051232;28;20444;-81
2021/05/28 09:17:00;;;;;;;9.10;3.05;;;;;;;;;;5050830;28;20454;-81
2021/05/28 09:19:27;;;;;;;7.10;2.30;;;;;;;;;;5051730;28;20056;-81
2021/05/28 09:21:55;;;;;;;3.58;2.33;;;;;;;;;;5033492;28;20088;-80
2021/05/28 09:24:27;;;;;;;4.30;2.00;;;;;;;;;;5051130;28;20442;-80
2021/05/28 09:26:54;;;;;;;5.22;2.00;;;;;;;;;;5051933;28;20123;-81
2021/05/28 09:29:21;;;;;;;2.25;1.70;;;;;;;;;;5051273;28;20127;-80
2021/05/28 09:31:48;;;;;;;13.43;2.67;;;;;;;;;;5022560;28;20492;-80
2021/05/28 09:34:27;;;;;;;4.45;1.70;;;;;;;;;;5033086;28;20069;-80
2021/05/28 09:36:54;;;;;;;3.58;2.08;;;;;;;;;;5051545;28;20073;-80
2021/05/28 09:39:21;;;;;;;3.40;1.85;;;;;;;;;;5051114;28;20124;-80
2021/05/28 09:41:49;;;;;;;6.68;1.88;;;;;;;;;;5033585;28;20132;-79
2021/05/28 09:44:18;;;;;;;5.40;2.15;;;;;;;;;;5050272;28;20136;-80
2021/05/28 09:46:59;;;;;;;4.80;1.98;;;;;;;;;;5031900;28;20084;-79
2021/05/28 09:49:28;;;;;;;5.95;1.95;;;;;;;;;;5028507;28;20417;-79
2021/05/28 09:52:22;;;;;;;3.65;1.90;;;;;;;;;;5047867;28;20124;-79
2021/05/28 09:54:56;;;;;;;2.70;1.98;;;;;;;;;;5028866;28;20053;-80
2021/05/28 09:57:52;;;;;;;2.92;2.10;;;;;;;;;;5032254;28;20120;-78
2021/05/28 10:00:28;;;;;;;4.50;2.72;;;;;;;;;;5048567;28;20072;-80
2021/05/28 10:03:10;;;;;;;6.05;1.83;;;;;;;;;;5050885;28;20095;-80
2021/05/28 10:05:38;;;;;;;3.08;2.00;;;;;;;;;;5050082;28;20094;-80
2021/05/28 10:08:09;;;;;;;5.40;2.17;;;;;;;;;;5050063;28;20153;-79
2021/05/28 10:10:40;;;;;;;5.13;2.42;;;;;;;;;;5050561;28;20077;-79
2021/05/28 10:13:11;;;;;;;6.72;2.75;;;;;;;;;;5050360;28;20140;-79
2021/05/28 10:15:39;;;;;;;5.65;2.60;;;;;;;;;;5049494;28;20073;-79
2021/05/28 10:18:07;;;;;;;5.30;2.60;;;;;;;;;;5049748;28;20160;-80
2021/05/28 10:20:35;;;;;;;5.05;2.65;;;;;;;;;;5049783;28;20128;-79
2021/05/28 10:23:05;;;;;;;6.53;2.42;;;;;;;;;;5033054;28;20098;-80
2021/05/28 10:25:33;;;;;;;5.22;2.67;;;;;;;;;;5049320;28;20143;-79
2021/05/28 10:28:02;;;;;;;7.60;2.65;;;;;;;;;;5033367;28;20060;-79
2021/05/28 10:30:36;;;;;;;7.35;2.72;;;;;;;;;;5042541;28;20107;-80
2021/05/28 10:33:23;;;;;;;4.22;2.60;;;;;;;;;;5050419;28;20095;-80
2021/05/28 10:35:52;;;;;;;4.25;2.53;;;;;;;;;;5048737;28;20095;-80
2021/05/28 10:38:32;;;;;;;8.10;3.10;;;;;;;;;;5049779;28;20087;-78
2021/05/28 10:41:05;;;;;;;3.47;2.50;;;;;;;;;;5049118;28;20726;-80
2021/05/28 10:43:34;;;;;;;11.93;2.88;;;;;;;;;;5049448;28;20152;-81
2021/05/28 10:46:05;;;;;;;11.15;3.40;;;;;;;;;;5049365;28;20059;-80
2021/05/28 10:48:38;;;;;;;5.70;3.08;;;;;;;;;;5050547;28;20052;-81
2021/05/28 10:51:05;;;;;;;7.43;3.28;;;;;;;;;;5032630;28;20133;-81
2021/05/28 10:53:32;;;;;;;6.97;2.88;;;;;;;;;;5050653;28;20792;-80
2021/05/28 10:56:06;;;;;;;4.65;2.63;;;;;;;;;;5042093;28;20075;-80
2021/05/28 10:58:56;;;;;;;6.75;2.88;;;;;;;;;;5050247;28;20041;-80
2021/05/28 11:01:35;;;;;;;8.23;3.60;;;;;;;;;;5050286;28;20095;-81
2021/05/28 11:04:06;;;;;;;3.45;2.53;;;;;;;;;;5050636;28;20555;-81
2021/05/28 11:06:35;;;;;;;3.88;2.55;;;;;;;;;;5050687;28;20131;-81
2021/05/28 11:09:09;;;;;;;5.68;2.78;;;;;;;;;;5053953;28;20816;-80
2021/05/28 11:11:36;;;;;;;7.05;3.50;;;;;;;;;;5053775;28;20910;-80
2021/05/28 11:14:14;;;;;;;5.82;3.22;;;;;;;;;;5052912;28;20147;-80
2021/05/28 11:16:57;;;;;;;5.13;2.85;;;;;;;;;;5053476;28;20048;-80
2021/05/28 11:19:25;;;;;;;6.75;3.08;;;;;;;;;;5053062;28;20132;-80
2021/05/28 11:21:56;;;;;;;7.80;4.20;;;;;;;;;;5053564;28;20578;-80
2021/05/28 11:24:43;;;;;;;13.80;3.85;;;;;;;;;;5053118;28;20473;-80
2021/05/28 11:27:31;;;;;;;12.02;4.03;;;;;;;;;;5045797;28;20505;-80
2021/05/28 11:30:04;;;;;;;8.82;3.75;;;;;;;;;;5028017;28;20053;-80
2021/05/28 11:32:35;;;;;;;7.00;4.25;;;;;;;;;;5035650;28;20140;-80
2021/05/28 11:35:21;;;;;;;7.07;3.67;;;;;;;;;;5052161;28;20044;-80
2021/05/28 11:37:49;;;;;;;7.40;3.60;;;;;;;;;;5053626;28;20045;-80
2021/05/28 11:40:18;;;;;;;10.63;3.85;;;;;;;;;;5035007;28;20084;-80
2021/05/28 11:42:46;;;;;;;6.60;3.60;;;;;;;;;;5052990;28;20071;-80
2021/05/28 11:45:14;;;;;;;12.15;3.60;;;;;;;;;;5034689;28;20052;-80
2021/05/28 11:47:41;;;;;;;9.73;3.22;;;;;;;;;;5052876;28;20143;-80
2021/05/28 11:50:12;;;;;;;6.40;3.20;;;;;;;;;;5053112;28;20595;-80
2021/05/28 11:52:39;;;;;;;7.57;3.38;;;;;;;;;;5053209;28;20136;-80
2021/05/28 11:55:09;;;;;;;21.10;3.70;;;;;;;;;;5052338;28;20100;-80
2021/05/28 11:57:37;;;;;;;5.80;3.10;;;;;;;;;;5052041;28;20124;-80
2021/05/28 12:00:08;;;;;;;3.92;2.28;;;;;;;;;;5035463;28;20094;-80
2021/05/28 12:02:49;;;;;;;4.82;2.45;;;;;;;;;;5052087;28;20435;-80
2021/05/28 12:05:19;;;;;;;5.50;2.55;;;;;;;;;;5052176;28;20060;-80
2021/05/28 12:07:47;;;;;;;10.55;3.13;;;;;;;;;;5052138;28;20059;-80
2021/05/28 12:10:15;;;;;;;5.47;2.88;;;;;;;;;;5053780;28;20076;-81
2021/05/28 12:12:49;;;;;;;5.88;2.92;;;;;;;;;;5051737;28;20080;-81
2021/05/28 12:15:17;;;;;;;5.95;2.88;;;;;;;;;;5034731;28;20083;-80
2021/05/28 12:17:47;;;;;;;7.65;2.85;;;;;;;;;;5034467;28;20053;-80
2021/05/28 12:20:14;;;;;;;4.38;2.58;;;;;;;;;;5033125;28;20079;-81
2021/05/28 12:22:56;;;;;;;6.55;2.53;;;;;;;;;;5016778;28;20059;-80
2021/05/28 12:25:23;;;;;;;6.57;3.05;;;;;;;;;;5051795;28;20045;-83
2021/05/28 12:27:54;;;;;;;7.43;2.33;;;;;;;;;;5035558;28;20672;-80
2021/05/28 12:30:26;;;;;;;6.68;3.50;;;;;;;;;;5035775;28;20084;-80
2021/05/28 12:32:53;;;;;;;5.00;2.60;;;;;;;;;;5035564;28;20077;-81
2021/05/28 12:35:23;;;;;;;7.50;2.67;;;;;;;;;;5034848;28;20053;-80
2021/05/28 12:38:10;;;;;;;2.97;1.90;;;;;;;;;;5039398;28;20478;-81
2021/05/28 12:40:46;;;;;;;3.20;1.83;;;;;;;;;;5024669;28;20533;-79
2021/05/28 12:43:27;;;;;;;7.28;2.50;;;;;;;;;;5051185;28;20489;-80
2021/05/28 12:45:55;;;;;;;4.22;2.35;;;;;;;;;;5031997;28;20049;-80
2021/05/28 12:48:44;;;;;;;3.08;1.92;;;;;;;;;;5031143;28;20693;-79
2021/05/28 12:51:13;;;;;;;4.78;2.10;;;;;;;;;;5036706;28;20066;-80
2021/05/28 12:53:41;;;;;;;4.65;2.47;;;;;;;;;;5051219;28;20083;-79
2021/05/28 12:56:08;;;;;;;7.97;3.03;;;;;;;;;;5049772;28;20120;-84
2021/05/28 12:58:44;;;;;;;9.55;3.55;;;;;;;;;;5033076;28;20726;-83
2021/05/28 13:01:15;;;;;;;4.95;2.35;;;;;;;;;;5032629;28;20437;-80
2021/05/28 13:03:44;;;;;;;2.80;1.92;;;;;;;;;;5033660;28;20045;-81
2021/05/28 13:06:23;;;;;;;4.20;2.90;;;;;;;;;;5051504;28;20076;-80
2021/05/28 13:08:51;;;;;;;5.05;2.55;;;;;;;;;;5033851;28;20136;-80
2021/05/28 13:11:19;;;;;;;6.47;2.90;;;;;;;;;;5051401;28;20106;-79
2021/05/28 13:13:47;;;;;;;7.00;2.90;;;;;;;;;;5051434;28;20080;-78
2021/05/28 13:16:23;;;;;;;10.45;3.33;;;;;;;;;;5034037;28;20051;-78
2021/05/28 13:18:51;;;;;;;8.30;3.28;;;;;;;;;;5051108;28;20044;-78
2021/05/28 13:21:26;;;;;;;6.75;3.20;;;;;;;;;;5051617;28;20708;-78
2021/05/28 13:23:55;;;;;;;8.52;3.22;;;;;;;;;;5048893;28;20136;-77
2021/05/28 13:26:24;;;;;;;5.63;2.97;;;;;;;;;;5029692;28;20051;-77
2021/05/28 13:28:52;;;;;;;6.97;3.30;;;;;;;;;;5030380;28;20080;-77
2021/05/28 13:31:21;;;;;;;6.45;3.30;;;;;;;;;;5029859;28;20220;-77
2021/05/28 13:33:49;;;;;;;7.15;3.40;;;;;;;;;;5029768;28;20466;-77
2021/05/28 13:36:20;;;;;;;3.92;2.85;;;;;;;;;;5030567;28;20076;-76
2021/05/28 13:38:55;;;;;;;5.07;3.15;;;;;;;;;;5049141;28;20049;-79
2021/05/28 13:41:34;;;;;;;4.35;2.78;;;;;;;;;;5049179;28;20179;-81
2021/05/28 13:44:02;;;;;;;4.60;2.80;;;;;;;;;;5045886;28;20053;-79
2021/05/28 13:46:32;;;;;;;9.32;2.85;;;;;;;;;;5013600;28;20111;-80
2021/05/28 13:49:01;;;;;;;12.45;2.90;;;;;;;;;;5032266;28;20050;-80
2021/05/28 13:51:29;;;;;;;6.45;2.33;;;;;;;;;;5013815;28;20621;-79
2021/05/28 13:53:56;;;;;;;5.05;2.92;;;;;;;;;;5031494;28;20077;-79
2021/05/28 13:56:23;;;;;;;7.22;2.60;;;;;;;;;;5016556;28;20094;-80
2021/05/28 13:58:51;;;;;;;5.38;2.38;;;;;;;;;;5050600;28;20466;-80
2021/05/28 14:01:18;;;;;;;4.20;2.30;;;;;;;;;;5050476;28;20096;-80
2021/05/28 14:03:45;;;;;;;2.83;2.20;;;;;;;;;;5050442;28;20052;-80
2021/05/28 14:06:12;;;;;;;5.13;2.78;;;;;;;;;;5031786;28;20048;-79
2021/05/28 14:08:40;;;;;;;3.75;2.65;;;;;;;;;;5050801;28;20487;-80
2021/05/28 14:11:17;;;;;;;6.35;2.35;;;;;;;;;;5026210;28;20128;-80
2021/05/28 14:13:45;;;;;;;3.47;1.98;;;;;;;;;;5012139;28;20096;-80
2021/05/28 14:16:13;;;;;;;9.07;2.25;;;;;;;;;;5029020;28;20446;-80
2021/05/28 14:18:41;;;;;;;6.65;2.50;;;;;;;;;;5029676;28;20136;-80
2021/05/28 14:21:08;;;;;;;3.00;2.00;;;;;;;;;;5030102;28;20049;-80
2021/05/28 14:23:37;;;;;;;2.92;2.10;;;;;;;;;;5011538;28;20103;-80
2021/05/28 14:26:05;;;;;;;4.32;2.30;;;;;;;;;;5028127;28;20883;-79
2021/05/28 14:28:32;;;;;;;2.92;2.42;;;;;;;;;;5049725;28;20103;-80
2021/05/28 14:30:59;;;;;;;11.00;2.80;;;;;;;;;;5049876;28;20061;-80
2021/05/28 14:36:13;;;;;;;4.05;2.33;;;;;;;;;;5043025;28;20136;-80
2021/05/28 14:38:40;;;;;;;10.48;2.50;;;;;;;;;;5049932;28;20128;-80
2021/05/28 14:41:07;;;;;;;5.15;2.50;;;;;;;;;;5032307;28;20084;-79
2021/05/28 14:43:34;;;;;;;4.22;1.92;;;;;;;;;;5053639;28;20132;-80
2021/05/28 14:46:02;;;;;;;3.15;2.47;;;;;;;;;;5054052;28;20083;-79
2021/05/28 14:48:29;;;;;;;4.47;2.05;;;;;;;;;;5054085;28;20053;-80
2021/05/28 14:51:00;;;;;;;4.00;2.35;;;;;;;;;;5036737;28;20148;-80
2021/05/28 14:53:27;;;;;;;2.95;1.98;;;;;;;;;;5036282;28;20132;-80
2021/05/28 14:55:55;;;;;;;5.18;2.80;;;;;;;;;;5053863;28;20099;-80